createdAt,value
2022-09-25T00:02:59.295Z,19.58
2022-09-25T00:08:21.143Z,19.57
2022-09-25T00:13:44.566Z,19.57
2022-09-25T00:19:25.082Z,19.57
2022-09-25T00:24:47.036Z,19.56
2022-09-25T00:30:10.889Z,19.55
2022-09-25T00:35:33.835Z,19.54
2022-09-25T00:40:56.079Z,19.52
2022-09-25T00:46:27.866Z,19.53
2022-09-25T00:51:55.633Z,19.52
2022-09-25T00:57:26.876Z,19.52
2022-09-25T01:02:54.021Z,19.51
2022-09-25T01:08:20.424Z,19.51
2022-09-25T01:13:42.390Z,19.50
2022-09-25T01:19:29.164Z,19.49
2022-09-25T01:24:53.562Z,19.47
2022-09-25T01:30:18.858Z,19.47
2022-09-25T01:35:52.409Z,19.47
2022-09-25T01:41:30.561Z,19.47
2022-09-25T01:46:54.111Z,19.46
2022-09-25T01:52:21.079Z,19.44
2022-09-25T01:57:53.907Z,19.45
2022-09-25T02:03:25.811Z,19.44
2022-09-25T02:08:54.143Z,19.44
2022-09-25T02:14:21.968Z,19.42
2022-09-25T02:20:06.483Z,19.43
2022-09-25T02:25:38.592Z,19.43
2022-09-25T02:31:02.151Z,19.42
2022-09-25T02:36:24.290Z,19.42
2022-09-25T02:41:48.738Z,19.41
2022-09-25T02:47:34.833Z,19.42
2022-09-25T02:53:08.353Z,19.42
2022-09-25T02:58:37.174Z,19.40
2022-09-25T03:04:00.616Z,19.38
2022-09-25T03:09:23.661Z,19.37
2022-09-25T03:14:45.431Z,19.38
2022-09-25T03:20:10.175Z,19.36
2022-09-25T03:25:31.853Z,19.36
2022-09-25T03:31:01.309Z,19.37
2022-09-25T03:36:25.165Z,19.36
2022-09-25T03:41:48.007Z,19.34
2022-09-25T03:47:09.734Z,19.32
2022-09-25T03:52:31.460Z,19.33
2022-09-25T03:57:53.173Z,19.32
2022-09-25T04:03:18.379Z,19.32
2022-09-25T04:08:40.255Z,19.31
2022-09-25T04:14:02.281Z,19.29
2022-09-25T04:19:23.977Z,19.29
2022-09-25T04:24:51.314Z,19.28
2022-09-25T04:30:13.398Z,19.28
2022-09-25T04:35:35.071Z,19.27
2022-09-25T04:40:58.068Z,19.26
2022-09-25T04:46:22.317Z,19.27
2022-09-25T04:51:44.456Z,19.25
2022-09-25T04:57:06.172Z,19.24
2022-09-25T05:02:28.571Z,19.23
2022-09-25T05:07:54.364Z,19.23
2022-09-25T05:13:16.086Z,19.22
2022-09-25T05:18:37.780Z,19.22
2022-09-25T05:23:59.774Z,19.19
2022-09-25T05:29:21.450Z,19.19
2022-09-25T05:34:43.083Z,19.19
2022-09-25T05:40:05.222Z,19.19
2022-09-25T05:45:26.864Z,19.19
2022-09-25T05:50:55.546Z,19.17
2022-09-25T05:56:17.491Z,19.20
2022-09-25T06:01:39.341Z,19.24
2022-09-25T06:07:02.734Z,19.29
2022-09-25T06:12:25.022Z,19.32
2022-09-25T06:17:46.654Z,19.34
2022-09-25T06:23:08.291Z,19.33
2022-09-25T06:28:31.185Z,19.33
2022-09-25T06:33:52.966Z,19.34
2022-09-25T06:39:14.695Z,19.34
2022-09-25T06:44:36.712Z,19.33
2022-09-25T06:49:58.386Z,19.32
2022-09-25T06:55:20.006Z,19.32
2022-09-25T07:00:45.846Z,19.31
2022-09-25T07:06:09.110Z,19.31
2022-09-25T07:11:31.555Z,19.30
2022-09-25T07:16:53.227Z,19.30
2022-09-25T07:22:14.878Z,19.29
2022-09-25T07:27:37.056Z,19.36
2022-09-25T07:33:00.285Z,19.59
2022-09-25T07:38:22.881Z,20.56
2022-09-25T07:43:45.283Z,23.58
2022-09-25T07:49:07.246Z,25.90
2022-09-25T07:54:28.907Z,27.52
2022-09-25T07:59:50.617Z,28.48
2022-09-25T08:05:12.526Z,27.92
2022-09-25T08:10:34.200Z,26.03
2022-09-25T08:15:56.697Z,24.67
2022-09-25T08:21:20.579Z,23.68
2022-09-25T08:26:42.247Z,22.98
2022-09-25T08:32:03.911Z,22.48
2022-09-25T08:37:25.569Z,22.10
2022-09-25T08:42:52.572Z,21.81
2022-09-25T08:48:41.545Z,21.58
2022-09-25T08:54:04.843Z,21.36
2022-09-25T08:59:33.699Z,21.20
2022-09-25T09:04:58.042Z,21.06
2022-09-25T09:10:34.201Z,20.95
2022-09-25T09:16:04.286Z,20.87
2022-09-25T09:21:45.932Z,20.83
2022-09-25T09:27:33.542Z,20.77
2022-09-25T09:33:28.144Z,20.76
2022-09-25T09:39:20.258Z,20.72
2022-09-25T09:44:50.248Z,20.69
2022-09-25T09:50:12.000Z,20.66
2022-09-25T09:55:45.296Z,20.65
2022-09-25T10:01:28.935Z,20.62
2022-09-25T10:07:14.141Z,20.60
2022-09-25T10:12:37.704Z,20.53
2022-09-25T10:18:02.147Z,20.49
2022-09-25T10:23:47.028Z,20.44
2022-09-25T10:29:40.881Z,20.40
2022-09-25T10:35:03.727Z,20.38
2022-09-25T10:40:28.205Z,20.37
2022-09-25T10:46:13.156Z,20.41
2022-09-25T10:51:34.921Z,20.40
2022-09-25T10:56:56.812Z,20.31
2022-09-25T11:02:40.373Z,20.28
2022-09-25T11:08:05.662Z,20.29
2022-09-25T11:13:30.660Z,20.31
2022-09-25T11:19:07.696Z,20.33
2022-09-25T11:24:44.431Z,20.34
2022-09-25T11:30:20.245Z,20.37
2022-09-25T11:35:56.855Z,20.36
2022-09-25T11:41:41.583Z,20.35
2022-09-25T11:47:35.087Z,20.32
2022-09-25T11:53:06.304Z,20.26
2022-09-25T11:58:46.295Z,20.24
2022-09-25T12:04:07.920Z,20.22
2022-09-25T12:09:52.973Z,20.23
2022-09-25T12:15:36.668Z,20.24
2022-09-25T12:21:06.812Z,20.22
2022-09-25T12:26:52.712Z,20.19
2022-09-25T12:32:23.098Z,20.12
2022-09-25T12:38:11.998Z,20.09
2022-09-25T12:43:41.377Z,20.04
2022-09-25T12:49:27.027Z,20.03
2022-09-25T12:54:58.324Z,20.03
2022-09-25T13:00:23.714Z,19.98
2022-09-25T13:06:06.162Z,19.99
2022-09-25T13:11:39.198Z,19.97
2022-09-25T13:17:01.431Z,20.01
2022-09-25T13:22:25.309Z,20.03
2022-09-25T13:27:47.577Z,20.05
2022-09-25T13:33:20.272Z,20.05
2022-09-25T13:39:04.802Z,20.05
2022-09-25T13:44:41.282Z,20.04
2022-09-25T13:50:17.663Z,20.04
2022-09-25T13:55:48.228Z,20.05
2022-09-25T14:01:33.478Z,20.06
2022-09-25T14:07:04.922Z,20.06
2022-09-25T14:12:42.431Z,20.06
2022-09-25T14:18:09.072Z,20.07
2022-09-25T14:23:33.512Z,20.07
2022-09-25T14:28:57.385Z,20.08
2022-09-25T14:34:30.787Z,20.10
2022-09-25T14:40:22.398Z,20.12
2022-09-25T14:46:01.496Z,20.16
2022-09-25T14:51:27.328Z,20.15
2022-09-25T14:56:55.050Z,20.17
2022-09-25T15:02:26.631Z,20.18
2022-09-25T15:07:48.359Z,20.16
2022-09-25T15:13:20.960Z,20.17
2022-09-25T15:18:56.321Z,20.17
2022-09-25T15:24:24.630Z,20.15
2022-09-25T15:29:48.342Z,20.15
2022-09-25T15:35:17.495Z,20.14
2022-09-25T15:40:40.413Z,20.10
2022-09-25T15:46:07.900Z,20.08
2022-09-25T15:51:33.698Z,20.06
2022-09-25T15:56:57.442Z,20.02
2022-09-25T16:02:40.038Z,19.98
2022-09-25T16:08:24.219Z,19.96
2022-09-25T16:13:49.306Z,19.91
2022-09-25T16:19:41.093Z,19.89
2022-09-25T16:25:02.949Z,19.86
2022-09-25T16:30:24.713Z,19.85
2022-09-25T16:36:10.253Z,19.83
2022-09-25T16:41:30.546Z,19.82
2022-09-25T16:46:54.958Z,19.80
2022-09-25T16:52:20.993Z,19.80
2022-09-25T16:57:46.145Z,19.79
2022-09-25T17:03:12.199Z,19.78
2022-09-25T17:08:33.915Z,19.78
2022-09-25T17:13:56.398Z,19.76
2022-09-25T17:19:19.315Z,19.75
2022-09-25T17:24:41.108Z,19.74
2022-09-25T17:30:02.793Z,19.73
2022-09-25T17:35:46.402Z,19.75
2022-09-25T17:41:20.848Z,19.73
2022-09-25T17:46:43.050Z,19.74
2022-09-25T17:52:05.264Z,19.76
2022-09-25T17:57:27.848Z,19.77
2022-09-25T18:02:49.630Z,19.79
2022-09-25T18:08:12.546Z,19.81
2022-09-25T18:13:37.868Z,19.81
2022-09-25T18:19:21.906Z,19.83
2022-09-25T18:24:43.588Z,19.83
2022-09-25T18:30:05.892Z,19.83
2022-09-25T18:35:27.577Z,19.84
2022-09-25T18:40:49.357Z,19.86
2022-09-25T18:46:11.148Z,19.86
2022-09-25T18:51:34.211Z,19.85
2022-09-25T18:56:58.646Z,19.85
2022-09-25T19:02:25.090Z,19.86
2022-09-25T19:07:46.840Z,19.86
2022-09-25T19:13:08.575Z,19.87
2022-09-25T19:18:30.212Z,19.87
2022-09-25T19:23:52.233Z,19.88
2022-09-25T19:29:14.072Z,19.88
2022-09-25T19:34:36.110Z,19.88
2022-09-25T19:40:16.768Z,19.88
2022-09-25T19:45:38.508Z,19.88
2022-09-25T19:51:06.273Z,19.90
2022-09-25T19:56:27.905Z,19.89
2022-09-25T20:01:49.597Z,19.90
2022-09-25T20:07:15.611Z,19.91
2022-09-25T20:12:37.229Z,19.90
2022-09-25T20:17:59.607Z,19.90
2022-09-25T20:23:21.253Z,19.90
2022-09-25T20:28:43.795Z,19.92
2022-09-25T20:34:06.344Z,19.93
2022-09-25T20:39:28.235Z,19.92
2022-09-25T20:44:50.124Z,19.93
2022-09-25T20:50:11.865Z,19.92
2022-09-25T20:55:38.110Z,19.93
2022-09-25T21:01:02.586Z,19.94
2022-09-25T21:06:27.090Z,19.91
2022-09-25T21:11:49.538Z,19.90
2022-09-25T21:17:11.481Z,19.88
2022-09-25T21:22:33.250Z,19.86
2022-09-25T21:27:55.498Z,19.84
2022-09-25T21:33:17.193Z,19.81
2022-09-25T21:38:39.474Z,19.79
2022-09-25T21:44:07.461Z,19.77
2022-09-25T21:49:29.633Z,19.74
2022-09-25T21:54:51.388Z,19.73
2022-09-25T22:00:13.948Z,19.73
2022-09-25T22:05:36.316Z,19.69
2022-09-25T22:10:59.186Z,19.68
2022-09-25T22:16:26.842Z,19.67
2022-09-25T22:21:50.299Z,19.65
2022-09-25T22:27:11.969Z,19.63
2022-09-25T22:32:33.638Z,19.62
2022-09-25T22:37:55.294Z,19.63
2022-09-25T22:43:17.010Z,19.60
2022-09-25T22:48:39.653Z,19.61
2022-09-25T22:54:01.335Z,19.59
2022-09-25T22:59:23.031Z,19.58
2022-09-25T23:04:46.282Z,19.59
2022-09-25T23:10:08.585Z,19.57
2022-09-25T23:15:30.452Z,19.56
2022-09-25T23:20:54.189Z,19.56
2022-09-25T23:26:15.899Z,19.55
2022-09-25T23:31:37.561Z,19.55
2022-09-25T23:36:59.209Z,19.54
2022-09-25T23:42:22.291Z,19.53
2022-09-25T23:47:44.129Z,19.53
2022-09-25T23:53:06.121Z,19.52
2022-09-25T23:58:28.349Z,19.52
